createdAt,value
2023-04-26T00:00:10.094Z,9.69
2023-04-26T00:02:40.321Z,9.68
2023-04-26T00:05:10.071Z,9.66
2023-04-26T00:07:39.268Z,9.66
2023-04-26T00:10:08.604Z,9.65
2023-04-26T00:12:37.569Z,9.62
2023-04-26T00:15:06.642Z,9.64
2023-04-26T00:17:34.880Z,9.62
2023-04-26T00:20:07.183Z,9.63
2023-04-26T00:22:35.428Z,9.62
2023-04-26T00:25:03.560Z,9.60
2023-04-26T00:27:31.949Z,9.60
2023-04-26T00:30:00.109Z,9.60
2023-04-26T00:32:29.981Z,9.59
2023-04-26T00:34:58.161Z,9.59
2023-04-26T00:37:27.786Z,9.58
2023-04-26T00:39:57.408Z,9.59
2023-04-26T00:42:25.742Z,9.59
2023-04-26T00:44:57.522Z,9.58
2023-04-26T00:47:26.310Z,9.56
2023-04-26T00:49:54.680Z,9.56
2023-04-26T00:52:24.141Z,9.55
2023-04-26T00:54:56.591Z,9.57
2023-04-26T00:57:25.299Z,9.57
2023-04-26T00:59:53.513Z,9.56
2023-04-26T01:02:21.870Z,9.53
2023-04-26T01:04:50.653Z,9.52
2023-04-26T01:07:18.842Z,9.54
2023-04-26T01:09:48.543Z,9.53
2023-04-26T01:12:18.236Z,9.55
2023-04-26T01:14:47.214Z,9.54
2023-04-26T01:17:15.646Z,9.56
2023-04-26T01:19:49.187Z,9.55
2023-04-26T01:22:18.153Z,9.52
2023-04-26T01:24:51.512Z,9.53
2023-04-26T01:27:19.872Z,9.52
2023-04-26T01:29:48.088Z,9.48
2023-04-26T01:32:21.783Z,9.48
2023-04-26T01:34:49.939Z,9.47
2023-04-26T01:37:18.021Z,9.51
2023-04-26T01:39:50.593Z,9.52
2023-04-26T01:42:18.833Z,9.53
2023-04-26T01:44:47.061Z,9.50
2023-04-26T01:47:15.281Z,9.51
2023-04-26T01:49:43.365Z,9.49
2023-04-26T01:52:11.703Z,9.51
2023-04-26T01:54:39.871Z,9.50
2023-04-26T01:57:09.644Z,9.51
2023-04-26T01:59:37.817Z,9.50
2023-04-26T02:02:06.116Z,9.49
2023-04-26T02:04:34.321Z,9.47
2023-04-26T02:07:02.507Z,9.49
2023-04-26T02:09:30.727Z,9.50
2023-04-26T02:11:58.780Z,9.51
2023-04-26T02:14:28.344Z,9.52
2023-04-26T02:16:57.532Z,9.53
2023-04-26T02:19:25.972Z,9.53
2023-04-26T02:21:57.338Z,9.55
2023-04-26T02:24:25.962Z,9.54
2023-04-26T02:26:55.212Z,9.55
2023-04-26T02:29:39.998Z,9.53
2023-04-26T02:32:12.394Z,9.51
2023-04-26T02:34:40.862Z,9.51
2023-04-26T02:37:09.165Z,9.50
2023-04-26T02:39:37.665Z,9.49
2023-04-26T02:42:10.135Z,9.47
2023-04-26T02:44:39.878Z,9.45
2023-04-26T02:47:08.414Z,9.47
2023-04-26T02:49:38.336Z,9.48
2023-04-26T02:52:06.663Z,9.48
2023-04-26T02:54:34.948Z,9.49
2023-04-26T02:57:03.250Z,9.48
2023-04-26T02:59:31.640Z,9.46
2023-04-26T03:01:59.839Z,9.47
2023-04-26T03:04:28.963Z,9.46
2023-04-26T03:06:58.666Z,9.47
2023-04-26T03:09:26.759Z,9.47
2023-04-26T03:11:54.961Z,9.46
2023-04-26T03:14:23.234Z,9.49
2023-04-26T03:16:51.427Z,9.50
2023-04-26T03:19:19.975Z,9.49
2023-04-26T03:21:48.059Z,9.47
2023-04-26T03:24:17.729Z,9.48
2023-04-26T03:26:46.187Z,9.49
2023-04-26T03:29:14.446Z,9.48
2023-04-26T03:31:42.670Z,9.50
2023-04-26T03:34:11.683Z,9.48
2023-04-26T03:36:39.933Z,9.48
2023-04-26T03:39:08.107Z,9.50
2023-04-26T03:41:39.715Z,9.48
2023-04-26T03:44:08.171Z,9.48
2023-04-26T03:46:36.533Z,9.48
2023-04-26T03:49:04.874Z,9.48
2023-04-26T03:51:33.011Z,9.48
2023-04-26T03:54:01.241Z,9.47
2023-04-26T03:56:29.358Z,9.48
2023-04-26T03:58:59.047Z,9.48
2023-04-26T04:01:27.208Z,9.47
2023-04-26T04:03:55.581Z,9.47
2023-04-26T04:06:24.119Z,9.46
2023-04-26T04:08:52.588Z,9.47
2023-04-26T04:11:20.963Z,9.45
2023-04-26T04:13:49.287Z,9.42
2023-04-26T04:16:19.350Z,9.45
2023-04-26T04:18:47.641Z,9.43
2023-04-26T04:21:15.828Z,9.42
2023-04-26T04:23:44.720Z,9.43
2023-04-26T04:26:13.034Z,9.43
2023-04-26T04:28:42.589Z,9.43
2023-04-26T04:31:10.879Z,9.42
2023-04-26T04:33:40.532Z,9.41
2023-04-26T04:36:09.761Z,9.40
2023-04-26T04:38:37.972Z,9.40
2023-04-26T04:41:06.281Z,9.40
2023-04-26T04:43:34.592Z,9.39
2023-04-26T04:46:02.950Z,9.36
2023-04-26T04:48:31.232Z,9.36
2023-04-26T04:51:00.923Z,9.36
2023-04-26T04:53:29.094Z,9.34
2023-04-26T04:55:57.481Z,9.33
2023-04-26T04:58:25.665Z,9.32
2023-04-26T05:00:54.372Z,9.29
2023-04-26T05:03:23.101Z,9.32
2023-04-26T05:05:51.816Z,9.33
2023-04-26T05:08:21.285Z,9.34
2023-04-26T05:10:49.604Z,9.33
2023-04-26T05:13:17.758Z,9.33
2023-04-26T05:15:45.912Z,9.34
2023-04-26T05:18:14.179Z,9.35
2023-04-26T05:20:42.571Z,9.36
2023-04-26T05:23:11.050Z,9.36
2023-04-26T05:25:41.879Z,9.36
2023-04-26T05:28:14.098Z,9.40
2023-04-26T05:30:42.305Z,9.41
2023-04-26T05:33:11.150Z,9.42
2023-04-26T05:35:39.430Z,9.44
2023-04-26T05:38:07.741Z,9.45
2023-04-26T05:40:36.093Z,9.47
2023-04-26T05:43:05.996Z,9.50
2023-04-26T05:45:34.368Z,9.50
2023-04-26T05:48:02.659Z,9.52
2023-04-26T05:50:31.365Z,9.54
2023-04-26T05:52:59.576Z,9.56
2023-04-26T05:55:27.850Z,9.58
2023-04-26T05:57:56.381Z,9.59
2023-04-26T06:00:26.807Z,9.61
2023-04-26T06:02:55.193Z,9.62
2023-04-26T06:05:23.882Z,9.65
2023-04-26T06:07:53.181Z,9.67
2023-04-26T06:10:21.608Z,9.69
2023-04-26T06:12:50.206Z,9.73
2023-04-26T06:15:18.511Z,9.76
2023-04-26T06:17:48.407Z,9.78
2023-04-26T06:20:21.863Z,9.82
2023-04-26T06:22:50.446Z,9.85
2023-04-26T06:25:19.225Z,9.89
2023-04-26T06:27:50.071Z,9.91
2023-04-26T06:30:18.394Z,9.90
2023-04-26T06:32:47.989Z,9.89
2023-04-26T06:35:16.664Z,9.89
2023-04-26T06:37:44.856Z,9.88
2023-04-26T06:40:15.987Z,9.89
2023-04-26T06:42:44.245Z,9.90
2023-04-26T06:45:13.269Z,9.91
2023-04-26T06:47:41.534Z,9.94
2023-04-26T06:50:12.417Z,9.97
2023-04-26T06:52:40.620Z,9.98
2023-04-26T06:55:10.204Z,10.06
2023-04-26T06:57:38.495Z,10.07
2023-04-26T07:00:09.773Z,10.09
2023-04-26T07:02:38.234Z,10.09
2023-04-26T07:05:07.526Z,10.09
2023-04-26T07:07:37.307Z,10.15
2023-04-26T07:10:06.149Z,10.18
2023-04-26T07:12:34.344Z,10.27
2023-04-26T07:15:02.660Z,10.37
2023-04-26T07:17:30.935Z,10.63
2023-04-26T07:19:59.322Z,10.91
2023-04-26T07:22:27.517Z,11.18
2023-04-26T07:24:57.083Z,11.36
2023-04-26T07:27:25.365Z,11.51
2023-04-26T07:29:56.313Z,11.62
2023-04-26T07:32:24.611Z,11.68
2023-04-26T07:34:52.996Z,11.73
2023-04-26T07:37:21.095Z,11.77
2023-04-26T07:39:49.290Z,11.77
2023-04-26T07:42:18.971Z,11.78
2023-04-26T07:44:49.304Z,11.90
2023-04-26T07:47:17.600Z,12.07
2023-04-26T07:49:47.643Z,12.16
2023-04-26T07:52:15.965Z,12.23
2023-04-26T07:54:46.929Z,12.20
2023-04-26T07:57:15.041Z,12.23
2023-04-26T07:59:44.782Z,12.19
2023-04-26T08:02:13.126Z,12.20
2023-04-26T08:04:48.794Z,12.23
2023-04-26T08:07:20.507Z,12.26
2023-04-26T08:09:49.236Z,12.24
2023-04-26T08:12:17.717Z,12.26
2023-04-26T08:14:47.790Z,12.25
2023-04-26T08:17:16.014Z,12.29
2023-04-26T08:19:44.188Z,12.32
2023-04-26T08:22:12.427Z,12.39
2023-04-26T08:24:40.604Z,12.41
2023-04-26T08:27:09.002Z,12.43
2023-04-26T08:29:37.101Z,12.49
2023-04-26T08:32:07.288Z,12.53
2023-04-26T08:34:35.471Z,12.55
2023-04-26T08:37:03.756Z,12.58
2023-04-26T08:39:32.441Z,12.57
2023-04-26T08:42:08.560Z,12.56
2023-04-26T08:44:37.905Z,12.53
2023-04-26T08:47:14.859Z,12.59
2023-04-26T08:49:45.117Z,12.63
2023-04-26T08:52:14.883Z,12.62
2023-04-26T08:54:43.130Z,12.66
2023-04-26T08:57:11.636Z,12.67
2023-04-26T08:59:41.125Z,12.75
2023-04-26T09:02:12.270Z,12.75
2023-04-26T09:04:41.588Z,12.75
2023-04-26T09:07:14.506Z,12.77
2023-04-26T09:09:44.005Z,12.82
2023-04-26T09:12:12.593Z,12.92
2023-04-26T09:14:41.594Z,13.09
2023-04-26T09:17:30.980Z,13.25
2023-04-26T09:19:59.649Z,13.33
2023-04-26T09:22:32.589Z,13.33
2023-04-26T09:25:01.853Z,13.39
2023-04-26T09:27:37.051Z,13.36
2023-04-26T09:30:09.436Z,13.40
2023-04-26T09:32:51.270Z,13.52
2023-04-26T09:35:31.654Z,13.59
2023-04-26T09:38:08.590Z,13.62
2023-04-26T09:40:41.700Z,13.68
2023-04-26T09:43:12.976Z,13.68
2023-04-26T09:45:50.330Z,13.61
2023-04-26T09:48:25.901Z,13.62
2023-04-26T09:50:55.336Z,13.63
2023-04-26T09:53:31.173Z,13.63
2023-04-26T09:56:08.543Z,13.57
2023-04-26T09:58:38.218Z,13.64
2023-04-26T10:01:08.245Z,13.75
2023-04-26T10:03:38.777Z,13.85
2023-04-26T10:06:11.389Z,13.80
2023-04-26T10:08:43.755Z,13.77
2023-04-26T10:11:12.903Z,13.76
2023-04-26T10:13:43.041Z,13.76
2023-04-26T10:16:11.976Z,13.70
2023-04-26T10:18:41.480Z,13.68
2023-04-26T10:21:14.028Z,13.71
2023-04-26T10:23:42.821Z,13.74
2023-04-26T10:26:47.257Z,13.73
2023-04-26T10:29:15.601Z,13.80
2023-04-26T10:32:08.919Z,13.90
2023-04-26T10:34:38.927Z,13.99
2023-04-26T10:37:14.850Z,14.07
2023-04-26T10:39:44.748Z,14.30
2023-04-26T10:42:26.997Z,14.38
2023-04-26T10:44:56.464Z,14.41
2023-04-26T10:47:32.789Z,14.47
2023-04-26T10:50:08.415Z,14.60
2023-04-26T10:52:37.290Z,14.57
2023-04-26T10:55:06.876Z,14.67
2023-04-26T10:57:54.492Z,14.65
2023-04-26T11:00:33.214Z,14.67
2023-04-26T11:03:06.742Z,14.68
2023-04-26T11:05:39.158Z,14.71
2023-04-26T11:08:09.611Z,14.66
2023-04-26T11:10:41.099Z,14.70
2023-04-26T11:13:09.665Z,14.73
2023-04-26T11:15:37.938Z,14.80
2023-04-26T11:18:06.593Z,14.77
2023-04-26T11:20:36.713Z,14.82
2023-04-26T11:23:05.130Z,14.77
2023-04-26T11:25:33.317Z,14.75
2023-04-26T11:28:02.434Z,14.74
2023-04-26T11:30:32.059Z,14.80
2023-04-26T11:33:01.553Z,14.90
2023-04-26T11:35:30.982Z,14.89
2023-04-26T11:38:01.629Z,14.96
2023-04-26T11:40:31.655Z,15.03
2023-04-26T11:43:03.716Z,15.04
2023-04-26T11:45:34.302Z,15.06
2023-04-26T11:48:04.681Z,15.17
2023-04-26T11:50:34.635Z,15.23
2023-04-26T11:53:08.108Z,15.30
2023-04-26T11:55:37.051Z,15.34
2023-04-26T11:58:13.934Z,15.46
2023-04-26T12:00:58.166Z,15.62
2023-04-26T12:03:31.112Z,15.76
2023-04-26T12:05:59.621Z,15.77
2023-04-26T12:08:29.202Z,15.81
2023-04-26T12:11:01.360Z,15.66
2023-04-26T12:13:30.272Z,15.72
2023-04-26T12:15:58.396Z,15.74
2023-04-26T12:18:32.495Z,15.79
2023-04-26T12:21:01.793Z,15.89
2023-04-26T12:23:39.527Z,15.82
2023-04-26T12:26:11.147Z,15.99
2023-04-26T12:28:39.868Z,16.02
2023-04-26T12:31:08.564Z,16.00
2023-04-26T12:33:37.516Z,15.96
2023-04-26T12:36:12.909Z,15.95
2023-04-26T12:38:42.936Z,15.98
2023-04-26T12:41:11.640Z,15.80
2023-04-26T12:43:42.857Z,15.77
2023-04-26T12:46:10.989Z,15.78
2023-04-26T12:48:39.208Z,15.84
2023-04-26T12:51:07.643Z,15.87
2023-04-26T12:53:37.312Z,15.86
2023-04-26T12:56:07.599Z,15.91
2023-04-26T12:58:35.814Z,15.88
2023-04-26T13:01:03.963Z,15.71
2023-04-26T13:03:32.349Z,15.74
2023-04-26T13:06:00.728Z,15.89
2023-04-26T13:08:29.882Z,15.90
2023-04-26T13:10:58.127Z,15.99
2023-04-26T13:13:39.770Z,16.10
2023-04-26T13:16:11.941Z,16.02
2023-04-26T13:18:40.988Z,16.01
2023-04-26T13:21:09.186Z,15.80
2023-04-26T13:23:37.383Z,15.91
2023-04-26T13:26:05.597Z,16.06
2023-04-26T13:28:37.425Z,16.09
2023-04-26T13:31:07.596Z,15.96
2023-04-26T13:33:35.749Z,15.94
2023-04-26T13:36:04.104Z,15.81
2023-04-26T13:38:33.055Z,15.70
2023-04-26T13:41:01.536Z,15.78
2023-04-26T13:43:29.732Z,15.77
2023-04-26T13:45:59.333Z,15.80
2023-04-26T13:48:27.560Z,15.77
2023-04-26T13:50:56.346Z,15.65
2023-04-26T13:53:24.552Z,15.30
2023-04-26T13:55:57.286Z,15.24
2023-04-26T13:58:25.363Z,15.37
2023-04-26T14:00:56.140Z,15.34
2023-04-26T14:03:26.933Z,15.40
2023-04-26T14:05:56.180Z,15.30
2023-04-26T14:08:24.249Z,15.31
2023-04-26T14:10:52.553Z,15.34
2023-04-26T14:13:20.721Z,15.39
2023-04-26T14:15:48.951Z,15.36
2023-04-26T14:18:18.124Z,15.45
2023-04-26T14:20:48.336Z,15.49
2023-04-26T14:23:17.029Z,15.49
2023-04-26T14:25:45.244Z,15.45
2023-04-26T14:28:16.615Z,15.31
2023-04-26T14:30:44.699Z,15.22
2023-04-26T14:33:13.072Z,15.17
2023-04-26T14:35:41.456Z,15.04
2023-04-26T14:38:11.057Z,15.03
2023-04-26T14:40:39.277Z,14.98
2023-04-26T14:43:07.569Z,14.93
2023-04-26T14:45:44.109Z,14.93
2023-04-26T14:48:13.476Z,14.95
2023-04-26T14:50:41.957Z,14.96
2023-04-26T14:53:11.684Z,14.93
2023-04-26T14:55:39.858Z,14.94
2023-04-26T14:58:08.200Z,14.94
2023-04-26T15:00:36.554Z,14.96
2023-04-26T15:03:05.465Z,14.92
2023-04-26T15:05:33.978Z,14.94
2023-04-26T15:08:02.156Z,14.86
2023-04-26T15:10:31.705Z,14.83
2023-04-26T15:13:00.240Z,14.79
2023-04-26T15:19:19.237Z,14.40
2023-04-26T15:21:47.421Z,14.41
2023-04-26T15:24:15.525Z,14.36
2023-04-26T15:26:45.282Z,14.27
2023-04-26T15:29:14.730Z,14.13
2023-04-26T15:31:42.989Z,14.12
2023-04-26T15:34:11.154Z,14.10
2023-04-26T15:36:39.480Z,14.10
2023-04-26T15:39:09.160Z,14.13
2023-04-26T15:41:37.450Z,14.10
2023-04-26T15:44:07.010Z,14.05
2023-04-26T15:46:37.990Z,14.05
2023-04-26T15:49:06.400Z,13.97
2023-04-26T15:51:34.508Z,13.93
2023-04-26T15:54:02.742Z,13.94
2023-04-26T15:56:30.979Z,13.94
2023-04-26T15:59:01.219Z,13.82
2023-04-26T16:01:31.498Z,13.75
2023-04-26T16:03:59.809Z,13.69
2023-04-26T16:06:28.614Z,13.65
2023-04-26T16:08:57.030Z,13.61
2023-04-26T16:11:26.360Z,13.45
2023-04-26T16:13:54.640Z,13.36
2023-04-26T16:16:22.961Z,13.27
2023-04-26T16:18:52.713Z,13.19
2023-04-26T16:21:20.938Z,13.16
2023-04-26T16:23:49.794Z,13.07
2023-04-26T16:26:22.360Z,13.05
2023-04-26T16:28:51.105Z,13.08
2023-04-26T16:31:19.994Z,13.12
2023-04-26T16:33:48.174Z,13.14
2023-04-26T16:36:18.084Z,13.12
2023-04-26T16:38:46.219Z,13.16
2023-04-26T16:41:14.366Z,13.05
2023-04-26T16:43:42.519Z,12.89
2023-04-26T16:46:10.843Z,12.77
2023-04-26T16:48:40.617Z,12.78
2023-04-26T16:51:09.091Z,12.80
2023-04-26T16:53:38.897Z,12.77
2023-04-26T16:56:07.833Z,12.76
2023-04-26T16:58:36.060Z,12.72
2023-04-26T17:01:05.110Z,12.68
2023-04-26T17:03:33.443Z,12.65
2023-04-26T17:06:02.181Z,12.63
2023-04-26T17:08:30.547Z,12.61
2023-04-26T17:11:00.042Z,12.50
2023-04-26T17:13:29.525Z,12.43
2023-04-26T17:15:58.367Z,12.40
2023-04-26T17:18:26.822Z,12.42
2023-04-26T17:20:56.511Z,12.38
2023-04-26T17:23:24.803Z,12.38
2023-04-26T17:25:55.123Z,12.37
2023-04-26T17:28:25.092Z,12.30
2023-04-26T17:30:53.507Z,12.34
2023-04-26T17:33:21.686Z,12.26
2023-04-26T17:35:52.323Z,12.20
2023-04-26T17:38:20.665Z,12.18
2023-04-26T17:40:53.347Z,12.17
2023-04-26T17:43:21.773Z,12.18
2023-04-26T17:45:51.431Z,12.13
2023-04-26T17:48:19.722Z,12.02
2023-04-26T17:50:47.980Z,12.06
2023-04-26T17:53:16.406Z,12.02
2023-04-26T17:55:45.182Z,12.00
2023-04-26T17:58:13.466Z,12.01
2023-04-26T18:00:41.510Z,11.92
2023-04-26T18:03:12.301Z,11.93
2023-04-26T18:05:40.787Z,11.92
2023-04-26T18:08:09.023Z,11.93
2023-04-26T18:10:37.305Z,11.88
2023-04-26T18:13:05.764Z,11.91
2023-04-26T18:15:33.895Z,11.88
2023-04-26T18:18:05.641Z,11.86
2023-04-26T18:20:36.491Z,11.81
2023-04-26T18:23:04.660Z,11.80
2023-04-26T18:25:33.039Z,11.81
2023-04-26T18:28:01.290Z,11.85
2023-04-26T18:30:29.450Z,11.78
2023-04-26T18:32:57.656Z,11.81
2023-04-26T18:35:25.933Z,11.81
2023-04-26T18:37:55.674Z,11.76
2023-04-26T18:40:24.054Z,11.74
2023-04-26T18:42:52.144Z,11.75
2023-04-26T18:45:20.296Z,11.74
2023-04-26T18:47:48.661Z,11.76
2023-04-26T18:50:17.042Z,11.76
2023-04-26T18:52:45.178Z,11.75
2023-04-26T18:55:14.977Z,11.73
2023-04-26T18:57:43.191Z,11.60
2023-04-26T19:00:12.160Z,11.58
2023-04-26T19:02:41.364Z,11.60
2023-04-26T19:05:11.693Z,11.57
2023-04-26T19:07:41.890Z,11.51
2023-04-26T19:10:10.989Z,11.48
2023-04-26T19:12:40.754Z,11.48
2023-04-26T19:15:09.781Z,11.44
2023-04-26T19:17:38.107Z,11.43
2023-04-26T19:20:12.491Z,11.38
2023-04-26T19:22:41.977Z,11.34
2023-04-26T19:25:10.954Z,11.29
2023-04-26T19:27:40.799Z,11.26
2023-04-26T19:30:10.067Z,11.21
2023-04-26T19:32:38.676Z,11.18
2023-04-26T19:35:12.614Z,11.18
2023-04-26T19:37:41.081Z,11.20
2023-04-26T19:40:10.520Z,11.16
2023-04-26T19:42:40.098Z,11.15
2023-04-26T19:45:09.295Z,11.16
2023-04-26T19:47:37.531Z,11.15
2023-04-26T19:50:06.479Z,11.21
2023-04-26T19:52:34.719Z,11.19
2023-04-26T19:55:03.576Z,11.21
2023-04-26T19:57:31.826Z,11.18
2023-04-26T20:00:01.433Z,11.26
2023-04-26T20:02:29.793Z,11.26
2023-04-26T20:04:58.269Z,11.25
2023-04-26T20:07:26.877Z,11.25
2023-04-26T20:09:55.080Z,11.20
2023-04-26T20:12:23.505Z,11.22
2023-04-26T20:14:51.755Z,11.17
2023-04-26T20:17:21.799Z,11.20
2023-04-26T20:19:49.963Z,11.19
2023-04-26T20:22:18.219Z,11.23
2023-04-26T20:24:46.459Z,11.22
2023-04-26T20:27:14.641Z,11.24
2023-04-26T20:29:42.772Z,11.24
2023-04-26T20:32:11.009Z,11.20
2023-04-26T20:34:40.620Z,11.23
2023-04-26T20:37:08.851Z,11.23
2023-04-26T20:39:37.306Z,11.25
2023-04-26T20:42:05.929Z,11.25
2023-04-26T20:44:33.964Z,11.26
2023-04-26T20:47:02.269Z,11.27
2023-04-26T20:49:30.583Z,11.27
2023-04-26T20:52:00.153Z,11.26
2023-04-26T20:54:28.433Z,11.23
2023-04-26T20:56:56.793Z,11.24
2023-04-26T20:59:25.698Z,11.25
2023-04-26T21:01:54.443Z,11.23
2023-04-26T21:04:23.036Z,11.26
2023-04-26T21:06:51.379Z,11.26
2023-04-26T21:09:21.659Z,11.30
2023-04-26T21:11:49.925Z,11.30
2023-04-26T21:14:18.005Z,11.35
2023-04-26T21:16:46.216Z,11.32
2023-04-26T21:19:14.398Z,11.33
2023-04-26T21:21:42.574Z,11.34
2023-04-26T21:24:10.712Z,11.37
2023-04-26T21:26:40.365Z,11.40
2023-04-26T21:29:09.589Z,11.43
2023-04-26T21:31:37.877Z,11.44
2023-04-26T21:34:06.114Z,11.45
2023-04-26T21:36:34.232Z,11.45
2023-04-26T21:39:03.621Z,11.42
2023-04-26T21:41:31.960Z,11.41
2023-04-26T21:44:02.202Z,11.39
2023-04-26T21:46:30.858Z,11.41
2023-04-26T21:48:59.545Z,11.42
2023-04-26T21:51:27.926Z,11.43
2023-04-26T21:53:56.304Z,11.43
2023-04-26T21:56:25.155Z,11.46
2023-04-26T21:58:53.472Z,11.49
2023-04-26T22:01:22.975Z,11.48
2023-04-26T22:03:51.558Z,11.49
2023-04-26T22:06:19.947Z,11.48
2023-04-26T22:08:48.000Z,11.46
2023-04-26T22:11:16.261Z,11.47
2023-04-26T22:13:44.438Z,11.47
2023-04-26T22:16:15.324Z,11.47
2023-04-26T22:18:45.002Z,11.46
2023-04-26T22:21:13.185Z,11.46
2023-04-26T22:23:41.472Z,11.46
2023-04-26T22:26:09.697Z,11.46
2023-04-26T22:28:38.023Z,11.40
2023-04-26T22:31:06.498Z,11.39
2023-04-26T22:33:34.786Z,11.41
2023-04-26T22:36:04.590Z,11.43
2023-04-26T22:38:38.813Z,11.43
2023-04-26T22:41:07.549Z,11.46
2023-04-26T22:43:35.966Z,11.45
2023-04-26T22:46:04.379Z,11.45
2023-04-26T22:48:35.151Z,11.44
2023-04-26T22:51:04.911Z,11.44
2023-04-26T22:53:33.098Z,11.42
2023-04-26T22:56:01.238Z,11.42
2023-04-26T22:58:29.475Z,11.38
2023-04-26T23:00:57.667Z,11.32
2023-04-26T23:03:26.096Z,11.35
2023-04-26T23:05:54.402Z,11.33
2023-04-26T23:08:24.097Z,11.31
2023-04-26T23:10:52.354Z,11.29
2023-04-26T23:13:20.454Z,11.34
2023-04-26T23:15:48.649Z,11.31
2023-04-26T23:18:16.964Z,11.29
2023-04-26T23:20:45.763Z,11.29
2023-04-26T23:23:14.054Z,11.30
2023-04-26T23:25:43.639Z,11.30
2023-04-26T23:28:13.756Z,11.26
2023-04-26T23:30:44.166Z,11.23
2023-04-26T23:33:12.478Z,11.19
2023-04-26T23:35:42.465Z,11.16
2023-04-26T23:38:10.829Z,11.14
2023-04-26T23:40:38.990Z,11.17
2023-04-26T23:43:08.745Z,11.17
2023-04-26T23:45:36.985Z,11.18
2023-04-26T23:48:05.799Z,11.20
2023-04-26T23:50:34.091Z,11.22
2023-04-26T23:53:02.177Z,11.24
2023-04-26T23:55:30.358Z,11.26
2023-04-26T23:57:58.707Z,11.29
